createdAt,value
2018-09-04T00:01:26.789Z,31.40
2018-09-04T00:03:55.127Z,32.13
2018-09-04T00:06:23.475Z,29.13
2018-09-04T00:08:51.799Z,30.57
2018-09-04T00:11:20.151Z,28.63
2018-09-04T00:14:03.164Z,30.97
2018-09-04T00:16:31.516Z,33.43
2018-09-04T00:18:59.836Z,31.77
2018-09-04T00:21:28.176Z,31.97
2018-09-04T00:23:56.492Z,29.10
2018-09-04T00:26:24.879Z,29.70
2018-09-04T00:28:53.203Z,28.40
2018-09-04T00:31:21.557Z,34.07
2018-09-04T00:33:49.908Z,31.13
2018-09-04T00:36:18.240Z,35.13
2018-09-04T00:38:46.620Z,35.10
2018-09-04T00:41:14.976Z,34.20
2018-09-04T00:43:43.748Z,30.07
2018-09-04T00:46:12.097Z,32.47
2018-09-04T00:48:40.448Z,36.17
2018-09-04T00:51:08.832Z,34.70
2018-09-04T00:53:37.424Z,35.97
2018-09-04T00:56:05.786Z,43.13
2018-09-04T00:58:34.144Z,37.43
2018-09-04T01:01:02.504Z,38.60
2018-09-04T01:03:30.824Z,35.73
2018-09-04T01:05:59.203Z,33.43
2018-09-04T01:08:27.535Z,35.03
2018-09-04T01:10:56.471Z,32.37
2018-09-04T01:13:24.807Z,34.60
2018-09-04T01:15:53.181Z,42.80
2018-09-04T01:18:21.813Z,37.17
2018-09-04T01:20:50.168Z,41.90
2018-09-04T01:23:18.484Z,44.40
2018-09-04T01:25:46.828Z,36.97
2018-09-04T01:28:15.160Z,37.87
2018-09-04T01:30:43.513Z,40.00
2018-09-04T01:33:11.851Z,40.87
2018-09-04T01:35:40.275Z,39.93
2018-09-04T01:38:08.597Z,39.33
2018-09-04T01:40:36.927Z,40.87
2018-09-04T01:43:05.907Z,44.80
2018-09-04T01:45:35.064Z,39.07
2018-09-04T01:48:03.431Z,41.30
2018-09-04T01:50:31.757Z,41.70
2018-09-04T01:53:00.108Z,46.00
2018-09-04T01:55:28.451Z,39.83
2018-09-04T01:57:56.820Z,46.63
2018-09-04T02:00:25.132Z,50.13
2018-09-04T02:02:53.990Z,49.53
2018-09-04T02:05:23.328Z,44.97
2018-09-04T02:07:51.789Z,52.80
2018-09-04T02:10:20.140Z,54.23
2018-09-04T02:12:48.496Z,47.23
2018-09-04T02:15:17.243Z,52.63
2018-09-04T02:17:45.589Z,56.20
2018-09-04T02:20:13.940Z,60.87
2018-09-04T02:22:42.359Z,55.80
2018-09-04T02:25:10.699Z,57.07
2018-09-04T02:27:39.276Z,66.20
2018-09-04T02:30:07.628Z,54.40
2018-09-04T02:32:35.989Z,51.03
2018-09-04T02:35:04.588Z,49.70
2018-09-04T02:37:32.940Z,53.57
2018-09-04T02:40:01.277Z,43.17
2018-09-04T02:42:29.644Z,37.93
2018-09-04T02:44:57.956Z,35.23
2018-09-04T02:47:26.318Z,35.13
2018-09-04T02:49:54.653Z,34.83
2018-09-04T02:52:23.015Z,38.90
2018-09-04T02:54:51.351Z,40.00
2018-09-04T02:57:19.696Z,38.83
2018-09-04T02:59:48.549Z,40.40
2018-09-04T03:02:16.928Z,33.93
2018-09-04T03:04:45.275Z,36.80
2018-09-04T03:07:13.632Z,39.40
2018-09-04T03:09:42.292Z,41.00
2018-09-04T03:12:10.646Z,46.27
2018-09-04T03:14:38.977Z,47.53
2018-09-04T03:17:07.360Z,43.10
2018-09-04T03:19:35.676Z,49.80
2018-09-04T03:22:04.037Z,49.17
2018-09-04T03:24:32.688Z,51.50
2018-09-04T03:27:01.041Z,48.07
2018-09-04T03:29:29.379Z,54.90
2018-09-04T03:31:57.720Z,56.00
2018-09-04T03:34:26.040Z,47.63
2018-09-04T03:36:54.415Z,52.73
2018-09-04T03:39:22.767Z,52.50
2018-09-04T03:41:51.088Z,50.20
2018-09-04T03:44:19.567Z,51.00
2018-09-04T03:46:47.833Z,51.83
2018-09-04T03:49:16.187Z,53.10
2018-09-04T03:51:44.518Z,47.83
2018-09-04T03:54:12.888Z,52.97
2018-09-04T03:56:41.240Z,47.00
2018-09-04T03:59:09.608Z,53.40
2018-09-04T04:01:37.944Z,61.17
2018-09-04T04:04:06.324Z,55.23
2018-09-04T04:06:34.807Z,54.50
2018-09-04T04:09:03.783Z,63.03
2018-09-04T04:11:32.080Z,58.70
2018-09-04T04:14:00.419Z,59.17
2018-09-04T04:16:28.747Z,65.43
2018-09-04T04:18:57.090Z,60.87
2018-09-04T04:21:25.417Z,55.17
2018-09-04T04:23:53.791Z,57.80
2018-09-04T04:26:22.107Z,60.97
2018-09-04T04:28:50.502Z,58.50
2018-09-04T04:31:18.824Z,54.57
2018-09-04T04:33:47.155Z,53.83
2018-09-04T04:36:15.481Z,49.57
2018-09-04T04:38:43.844Z,52.97
2018-09-04T04:41:12.164Z,47.70
2018-09-04T04:43:40.516Z,59.90
2018-09-04T04:46:08.844Z,56.40
2018-09-04T04:48:37.212Z,49.70
2018-09-04T04:51:05.732Z,50.57
2018-09-04T04:53:34.084Z,50.13
2018-09-04T04:56:02.403Z,43.50
2018-09-04T04:58:30.785Z,50.10
2018-09-04T05:00:59.228Z,52.33
2018-09-04T05:03:27.580Z,51.50
2018-09-04T05:05:55.920Z,50.80
2018-09-04T05:08:24.265Z,52.07
2018-09-04T05:10:53.050Z,53.17
2018-09-04T05:13:21.427Z,58.50
2018-09-04T05:15:49.748Z,48.70
2018-09-04T05:18:18.140Z,40.13
2018-09-04T05:20:46.492Z,40.63
2018-09-04T05:23:14.840Z,41.03
2018-09-04T05:25:43.676Z,39.53
2018-09-04T05:28:12.027Z,39.90
2018-09-04T05:30:40.389Z,41.67
2018-09-04T05:33:14.084Z,37.13
2018-09-04T05:35:46.596Z,40.97
2018-09-04T05:38:14.933Z,38.57
2018-09-04T05:40:43.269Z,36.40
2018-09-04T05:43:15.195Z,38.90
2018-09-04T05:45:43.575Z,33.00
2018-09-04T05:48:14.564Z,35.50
2018-09-04T05:50:42.961Z,39.27
2018-09-04T05:53:11.348Z,39.50
2018-09-04T05:55:39.835Z,39.77
2018-09-04T05:58:08.157Z,38.63
2018-09-04T06:00:38.785Z,44.53
2018-09-04T06:03:07.132Z,46.20
2018-09-04T06:05:35.508Z,47.70
2018-09-04T06:08:03.836Z,47.87
2018-09-04T06:10:32.172Z,47.63
2018-09-04T06:13:00.503Z,49.43
2018-09-04T06:15:29.480Z,54.90
2018-09-04T06:17:57.812Z,55.37
2018-09-04T06:20:26.181Z,43.80
2018-09-04T06:22:54.509Z,43.97
2018-09-04T06:25:22.863Z,49.83
2018-09-04T06:27:51.212Z,49.30
2018-09-04T06:30:19.572Z,49.60
2018-09-04T06:32:47.902Z,48.00
2018-09-04T06:35:16.262Z,50.47
2018-09-04T06:37:44.600Z,53.77
2018-09-04T06:40:12.971Z,50.80
2018-09-04T06:42:43.943Z,49.73
2018-09-04T06:45:12.304Z,48.93
2018-09-04T06:47:40.729Z,49.03
2018-09-04T06:50:09.268Z,49.97
2018-09-04T06:52:37.593Z,45.77
2018-09-04T06:55:06.205Z,43.47
2018-09-04T06:57:34.544Z,42.40
2018-09-04T07:00:02.941Z,43.00
2018-09-04T07:02:31.275Z,43.17
2018-09-04T07:04:59.620Z,41.73
2018-09-04T07:07:27.940Z,36.63
2018-09-04T07:09:56.425Z,35.33
2018-09-04T07:12:24.760Z,34.80
2018-09-04T07:14:53.161Z,30.63
2018-09-04T07:17:21.500Z,29.77
2018-09-04T07:19:49.865Z,25.63
2018-09-04T07:22:18.673Z,21.87
2018-09-04T07:24:47.047Z,22.53
2018-09-04T07:27:15.656Z,21.87
2018-09-04T07:29:44.034Z,22.30
2018-09-04T07:32:12.833Z,20.07
2018-09-04T07:34:41.221Z,18.30
2018-09-04T07:37:09.573Z,17.70
2018-09-04T07:39:37.942Z,17.87
2018-09-04T07:42:06.556Z,17.23
2018-09-04T07:44:35.732Z,16.57
2018-09-04T07:47:04.121Z,15.20
2018-09-04T07:49:32.473Z,12.50
2018-09-04T07:52:00.824Z,13.40
2018-09-04T07:54:29.140Z,13.90
2018-09-04T07:56:57.549Z,12.60
2018-09-04T07:59:25.893Z,12.90
2018-09-04T08:01:54.256Z,13.03
2018-09-04T08:04:22.580Z,13.60
2018-09-04T08:06:52.550Z,11.80
2018-09-04T08:09:20.876Z,10.80
2018-09-04T08:11:49.369Z,10.77
2018-09-04T08:14:17.712Z,9.17
2018-09-04T08:16:46.101Z,12.03
2018-09-04T08:19:14.432Z,12.33
2018-09-04T08:21:42.776Z,11.37
2018-09-04T08:24:11.334Z,11.87
2018-09-04T08:26:39.679Z,11.23
2018-09-04T08:29:07.991Z,10.20
2018-09-04T08:31:36.351Z,8.33
2018-09-04T08:34:04.706Z,9.10
2018-09-04T08:36:33.316Z,11.80
2018-09-04T08:39:01.660Z,12.13
2018-09-04T08:41:30.024Z,13.03
2018-09-04T08:43:58.368Z,14.47
2018-09-04T08:46:26.728Z,13.23
2018-09-04T08:48:55.056Z,17.53
2018-09-04T08:51:23.408Z,13.17
2018-09-04T08:53:51.732Z,12.10
2018-09-04T08:56:20.081Z,12.30
2018-09-04T08:58:48.428Z,14.60
2018-09-04T09:01:16.792Z,11.90
2018-09-04T09:03:45.230Z,9.07
2018-09-04T09:06:13.528Z,8.77
2018-09-04T09:08:41.872Z,11.40
2018-09-04T09:11:10.265Z,11.50
2018-09-04T09:13:39.020Z,9.47
2018-09-04T09:16:07.445Z,8.37
2018-09-04T09:18:35.784Z,9.50
2018-09-04T09:21:04.156Z,9.63
2018-09-04T09:23:32.480Z,9.20
2018-09-04T09:26:01.465Z,8.47
2018-09-04T09:28:29.800Z,8.20
2018-09-04T09:30:58.372Z,7.50
2018-09-04T09:33:26.704Z,6.93
2018-09-04T09:35:55.052Z,7.10
2018-09-04T09:38:23.365Z,6.27
2018-09-04T09:40:51.791Z,6.80
2018-09-04T09:43:20.117Z,6.80
2018-09-04T09:45:48.469Z,6.73
2018-09-04T09:48:16.871Z,6.00
2018-09-04T09:50:45.453Z,6.80
2018-09-04T09:53:13.826Z,7.00
2018-09-04T09:55:45.588Z,6.17
2018-09-04T09:58:13.911Z,6.07
2018-09-04T10:00:47.579Z,6.17
2018-09-04T10:03:21.384Z,10.17
2018-09-04T10:05:49.725Z,6.33
2018-09-04T10:08:18.129Z,5.70
2018-09-04T10:10:46.665Z,5.90
2018-09-04T10:13:15.024Z,5.93
2018-09-04T10:15:43.432Z,6.07
2018-09-04T10:18:11.785Z,6.80
2018-09-04T10:20:40.824Z,6.33
2018-09-04T10:23:09.204Z,6.40
2018-09-04T10:25:37.527Z,6.43
2018-09-04T10:28:05.920Z,6.47
2018-09-04T10:30:34.611Z,7.00
2018-09-04T10:33:04.024Z,6.23
2018-09-04T10:35:39.131Z,6.77
2018-09-04T10:38:13.005Z,7.20
2018-09-04T10:40:47.234Z,6.57
2018-09-04T10:43:17.690Z,6.30
2018-09-04T10:45:56.024Z,6.53
2018-09-04T10:48:29.250Z,6.57
2018-09-04T10:51:04.112Z,6.50
2018-09-04T10:53:38.115Z,6.13
2018-09-04T10:56:08.905Z,6.60
2018-09-04T10:58:42.937Z,6.63
2018-09-04T11:01:12.540Z,5.73
2018-09-04T11:03:42.932Z,6.47
2018-09-04T11:06:15.910Z,7.03
2018-09-04T11:08:46.477Z,10.10
2018-09-04T11:11:16.521Z,15.20
2018-09-04T11:13:46.718Z,6.60
2018-09-04T11:16:16.687Z,7.10
2018-09-04T11:18:46.449Z,5.77
2018-09-04T11:21:19.491Z,6.20
2018-09-04T11:23:50.432Z,6.20
2018-09-04T11:26:20.702Z,6.27
2018-09-04T11:28:53.658Z,6.10
2018-09-04T11:31:32.842Z,6.37
2018-09-04T11:34:04.544Z,6.17
2018-09-04T11:36:34.414Z,6.10
2018-09-04T11:39:04.749Z,5.80
2018-09-04T11:41:38.656Z,6.73
2018-09-04T11:44:17.794Z,7.63
2018-09-04T11:46:48.689Z,7.20
2018-09-04T11:49:21.936Z,8.03
2018-09-04T11:51:51.609Z,6.67
2018-09-04T11:54:21.665Z,6.70
2018-09-04T11:56:52.167Z,6.90
2018-09-04T11:59:22.306Z,7.30
2018-09-04T12:01:57.110Z,6.70
2018-09-04T12:04:27.422Z,5.80
2018-09-04T12:06:59.348Z,6.83
2018-09-04T12:09:29.246Z,6.13
2018-09-04T12:11:59.255Z,6.33
2018-09-04T12:14:33.895Z,6.57
2018-09-04T12:17:06.151Z,6.47
2018-09-04T12:22:29.395Z,7.17
2018-09-04T12:25:00.753Z,7.03
2018-09-04T12:27:30.822Z,10.90
2018-09-04T12:30:00.362Z,7.87
2018-09-04T12:32:28.707Z,6.87
2018-09-04T12:34:58.204Z,7.20
2018-09-04T12:37:26.589Z,6.33
2018-09-04T12:39:58.384Z,7.10
2018-09-04T12:42:27.813Z,6.47
2018-09-04T12:44:58.284Z,7.40
2018-09-04T12:47:26.637Z,6.77
2018-09-04T12:49:55.164Z,7.10
2018-09-04T12:52:23.913Z,7.13
2018-09-04T12:54:52.279Z,7.97
2018-09-04T12:57:21.023Z,7.27
2018-09-04T12:59:49.439Z,7.63
2018-09-04T13:02:17.756Z,7.57
2018-09-04T13:04:46.800Z,7.40
2018-09-04T13:07:15.142Z,7.53
2018-09-04T13:09:43.616Z,7.53
2018-09-04T13:12:11.951Z,7.40
2018-09-04T13:14:40.770Z,6.27
2018-09-04T13:17:08.992Z,6.93
2018-09-04T13:19:38.145Z,7.53
2018-09-04T13:22:06.532Z,7.07
2018-09-04T13:24:35.064Z,7.20
2018-09-04T13:27:04.482Z,7.37
2018-09-04T13:29:34.061Z,7.00
2018-09-04T13:32:02.452Z,7.43
2018-09-04T13:34:32.166Z,7.10
2018-09-04T13:37:00.760Z,7.93
2018-09-04T13:39:30.858Z,8.77
2018-09-04T13:42:01.604Z,17.40
2018-09-04T13:44:36.115Z,22.53
2018-09-04T13:47:09.536Z,10.20
2018-09-04T13:49:40.279Z,8.63
2018-09-04T13:52:13.614Z,8.80
2018-09-04T13:54:44.634Z,8.10
2018-09-04T13:57:14.380Z,9.40
2018-09-04T13:59:45.642Z,8.47
2018-09-04T14:02:15.494Z,8.77
2018-09-04T14:04:50.811Z,8.93
2018-09-04T14:07:30.832Z,10.10
2018-09-04T14:10:00.913Z,8.23
2018-09-04T14:12:31.167Z,8.37
2018-09-04T14:15:01.754Z,8.30
2018-09-04T14:17:31.086Z,8.27
2018-09-04T14:20:03.617Z,8.80
2018-09-04T14:22:39.191Z,8.60
2018-09-04T14:25:11.438Z,8.00
2018-09-04T14:27:44.712Z,8.50
2018-09-04T14:30:16.145Z,8.80
2018-09-04T14:32:45.153Z,8.47
2018-09-04T14:35:18.695Z,9.13
2018-09-04T14:37:48.178Z,8.77
2018-09-04T14:40:18.317Z,9.10
2018-09-04T14:42:49.029Z,8.10
2018-09-04T14:45:19.120Z,9.03
2018-09-04T14:47:52.623Z,8.50
2018-09-04T14:50:22.664Z,8.90
2018-09-04T14:52:55.740Z,8.83
2018-09-04T14:55:26.429Z,8.60
2018-09-04T14:57:56.665Z,8.80
2018-09-04T15:00:34.990Z,9.07
2018-09-04T15:03:07.085Z,22.80
2018-09-04T15:05:37.713Z,8.67
2018-09-04T15:08:10.531Z,8.90
2018-09-04T15:10:40.256Z,8.33
2018-09-04T15:13:09.800Z,8.27
2018-09-04T15:15:41.800Z,8.00
2018-09-04T15:18:12.204Z,8.00
2018-09-04T15:20:41.901Z,8.40
2018-09-04T15:23:12.892Z,8.20
2018-09-04T15:25:53.781Z,9.60
2018-09-04T15:28:25.196Z,9.13
2018-09-04T15:31:00.525Z,9.23
2018-09-04T15:33:30.252Z,9.13
2018-09-04T15:36:01.003Z,8.80
2018-09-04T15:38:30.685Z,9.37
2018-09-04T15:41:04.261Z,8.87
2018-09-04T15:43:37.983Z,8.70
2018-09-04T15:46:11.688Z,8.57
2018-09-04T15:48:41.770Z,8.80
2018-09-04T15:51:15.532Z,8.67
2018-09-04T15:53:48.483Z,8.83
2018-09-04T15:56:21.143Z,8.97
2018-09-04T15:58:56.934Z,8.90
2018-09-04T16:01:27.715Z,8.40
2018-09-04T16:03:58.008Z,10.87
2018-09-04T16:06:27.834Z,14.20
2018-09-04T16:09:05.300Z,10.00
2018-09-04T16:11:39.294Z,9.63
2018-09-04T16:14:12.061Z,8.93
2018-09-04T16:16:44.637Z,8.90
2018-09-04T16:19:19.437Z,9.53
2018-09-04T16:21:49.926Z,9.23
2018-09-04T16:24:23.205Z,9.50
2018-09-04T16:26:58.005Z,9.20
2018-09-04T16:29:27.960Z,9.63
2018-09-04T16:31:57.598Z,9.33
2018-09-04T16:34:27.897Z,9.67
2018-09-04T16:37:00.222Z,9.73
2018-09-04T16:39:30.935Z,9.63
2018-09-04T16:42:04.164Z,10.03
2018-09-04T16:44:37.925Z,9.90
2018-09-04T16:47:13.618Z,9.90
2018-09-04T16:49:43.893Z,9.80
2018-09-04T16:52:18.222Z,9.53
2018-09-04T16:54:50.439Z,9.83
2018-09-04T16:57:21.192Z,10.03
2018-09-04T16:59:55.643Z,11.13
2018-09-04T17:02:25.806Z,9.67
2018-09-04T17:05:02.674Z,10.13
2018-09-04T17:07:32.783Z,9.73
2018-09-04T17:10:04.130Z,9.50
2018-09-04T17:12:34.961Z,10.90
2018-09-04T17:15:05.025Z,9.50
2018-09-04T17:17:34.898Z,9.50
2018-09-04T17:20:06.180Z,9.47
2018-09-04T17:22:39.744Z,26.73
2018-09-04T17:25:09.686Z,11.20
2018-09-04T17:27:39.429Z,8.87
2018-09-04T17:30:12.052Z,9.20
2018-09-04T17:32:41.437Z,9.97
2018-09-04T17:35:11.049Z,9.57
2018-09-04T17:37:41.858Z,10.00
2018-09-04T17:40:11.638Z,9.43
2018-09-04T17:42:43.204Z,9.30
2018-09-04T17:45:13.687Z,9.13
2018-09-04T17:47:51.164Z,9.10
2018-09-04T17:50:21.229Z,9.20
2018-09-04T17:52:51.213Z,8.97
2018-09-04T17:55:26.314Z,9.37
2018-09-04T17:58:03.315Z,9.47
2018-09-04T18:00:36.602Z,9.30
2018-09-04T18:03:08.290Z,10.10
2018-09-04T18:05:39.541Z,9.60
2018-09-04T18:08:12.047Z,9.10
2018-09-04T18:10:42.435Z,9.90
2018-09-04T18:13:14.431Z,9.70
2018-09-04T18:15:48.327Z,10.03
2018-09-04T18:18:18.647Z,9.80
2018-09-04T18:20:48.780Z,9.87
2018-09-04T18:23:19.470Z,9.77
2018-09-04T18:25:52.853Z,10.83
2018-09-04T18:28:28.455Z,10.17
2018-09-04T18:30:58.937Z,10.83
2018-09-04T18:33:29.148Z,10.10
2018-09-04T18:36:01.315Z,10.50
2018-09-04T18:38:34.104Z,11.07
2018-09-04T18:41:07.304Z,10.23
2018-09-04T18:43:38.441Z,10.10
2018-09-04T18:46:11.579Z,10.83
2018-09-04T18:48:45.692Z,10.67
2018-09-04T18:51:17.578Z,22.73
2018-09-04T18:53:49.171Z,10.70
2018-09-04T18:56:23.718Z,10.50
2018-09-04T18:58:54.001Z,10.73
2018-09-04T19:01:25.243Z,10.90
2018-09-04T19:03:56.100Z,10.87
2018-09-04T19:06:26.381Z,11.43
2018-09-04T19:08:56.403Z,10.40
2018-09-04T19:11:29.853Z,10.23
2018-09-04T19:14:02.379Z,10.33
2018-09-04T19:16:36.684Z,10.27
2018-09-04T19:19:09.226Z,11.10
2018-09-04T19:21:39.329Z,11.53
2018-09-04T19:24:14.642Z,13.67
2018-09-04T19:26:49.168Z,11.33
2018-09-04T19:29:24.406Z,11.70
2018-09-04T19:31:57.492Z,39.70
2018-09-04T19:34:28.108Z,32.10
2018-09-04T19:36:57.969Z,13.47
2018-09-04T19:39:28.274Z,13.27
2018-09-04T19:42:02.164Z,11.97
2018-09-04T19:44:36.592Z,11.50
2018-09-04T19:47:09.791Z,11.50
2018-09-04T19:49:40.101Z,11.67
2018-09-04T19:52:10.148Z,11.90
2018-09-04T19:54:40.538Z,12.10
2018-09-04T19:57:10.472Z,11.70
2018-09-04T19:59:40.093Z,11.67
2018-09-04T20:02:12.167Z,11.13
2018-09-04T20:04:42.804Z,11.20
2018-09-04T20:07:19.751Z,12.10
2018-09-04T20:09:49.300Z,11.63
2018-09-04T20:12:18.899Z,11.90
2018-09-04T20:14:49.497Z,11.67
2018-09-04T20:17:22.751Z,11.40
2018-09-04T20:19:52.464Z,11.43
2018-09-04T20:22:23.169Z,12.23
2018-09-04T20:24:54.684Z,12.93
2018-09-04T20:27:27.858Z,11.93
2018-09-04T20:30:02.517Z,11.93
2018-09-04T20:32:35.762Z,11.83
2018-09-04T20:35:07.602Z,12.43
2018-09-04T20:37:41.002Z,11.83
2018-09-04T20:40:14.309Z,12.67
2018-09-04T20:42:45.222Z,12.23
2018-09-04T20:45:14.411Z,11.37
2018-09-04T20:47:42.884Z,12.20
2018-09-04T20:50:11.236Z,12.73
2018-09-04T20:52:39.588Z,12.50
2018-09-04T20:55:07.976Z,12.60
2018-09-04T20:57:38.773Z,12.87
2018-09-04T21:00:20.818Z,12.53
2018-09-04T21:03:00.569Z,12.63
2018-09-04T21:05:40.948Z,12.50
2018-09-04T21:08:24.064Z,12.57
2018-09-04T21:10:53.132Z,12.13
2018-09-04T21:13:21.535Z,12.63
2018-09-04T21:15:49.901Z,13.60
2018-09-04T21:18:18.288Z,12.53
2018-09-04T21:20:46.647Z,12.93
2018-09-04T21:23:15.544Z,13.07
2018-09-04T21:25:43.924Z,12.73
2018-09-04T21:28:12.276Z,13.40
2018-09-04T21:30:40.641Z,12.80
2018-09-04T21:33:09.094Z,12.57
2018-09-04T21:35:37.444Z,13.10
2018-09-04T21:38:05.830Z,12.17
2018-09-04T21:40:34.192Z,13.17
2018-09-04T21:43:02.519Z,12.87
2018-09-04T21:45:30.894Z,13.57
2018-09-04T21:47:59.212Z,13.27
2018-09-04T21:50:27.563Z,12.93
2018-09-04T21:52:55.896Z,12.87
2018-09-04T21:55:24.248Z,12.90
2018-09-04T21:57:52.567Z,13.60
2018-09-04T22:00:25.520Z,13.53
2018-09-04T22:02:54.412Z,13.83
2018-09-04T22:05:24.056Z,13.03
2018-09-04T22:07:53.257Z,13.50
2018-09-04T22:10:21.650Z,12.73
2018-09-04T22:12:50.017Z,14.10
2018-09-04T22:15:18.396Z,13.33
2018-09-04T22:17:46.784Z,14.43
2018-09-04T22:20:15.131Z,14.10
2018-09-04T22:22:43.480Z,13.27
2018-09-04T22:25:11.853Z,13.50
2018-09-04T22:27:40.205Z,13.63
2018-09-04T22:30:08.617Z,13.43
2018-09-04T22:32:36.957Z,13.10
2018-09-04T22:35:05.448Z,13.47
2018-09-04T22:37:33.785Z,13.70
2018-09-04T22:40:02.133Z,13.27
2018-09-04T22:42:30.652Z,13.60
2018-09-04T22:44:59.020Z,14.20
2018-09-04T22:47:27.360Z,14.07
2018-09-04T22:50:00.927Z,13.77
2018-09-04T22:52:31.448Z,14.00
2018-09-04T22:55:02.632Z,13.50
2018-09-04T22:57:31.456Z,14.47
2018-09-04T22:59:59.836Z,14.27
2018-09-04T23:02:28.261Z,13.53
2018-09-04T23:04:57.061Z,13.33
2018-09-04T23:07:25.384Z,13.20
2018-09-04T23:09:53.757Z,14.57
2018-09-04T23:12:22.144Z,13.60
2018-09-04T23:14:50.512Z,13.00
2018-09-04T23:17:18.876Z,13.97
2018-09-04T23:19:47.285Z,13.17
2018-09-04T23:22:15.604Z,14.43
2018-09-04T23:24:43.936Z,15.90
2018-09-04T23:27:12.288Z,14.40
2018-09-04T23:29:40.624Z,13.77
2018-09-04T23:32:08.980Z,14.57
2018-09-04T23:34:37.833Z,13.60
2018-09-04T23:37:06.325Z,14.23
2018-09-04T23:39:34.668Z,14.23
2018-09-04T23:42:03.016Z,13.90
2018-09-04T23:44:31.352Z,14.43
2018-09-04T23:46:59.754Z,14.53
2018-09-04T23:49:28.607Z,14.93
2018-09-04T23:51:56.986Z,13.77
2018-09-04T23:54:25.527Z,14.83
2018-09-04T23:56:53.920Z,14.70
2018-09-04T23:59:22.573Z,14.30
